GCLA/SPC METAR and TAF weather

Enter ICAO airport designator
Station Type Date Time Source
GCLA METAR 2019/06/24 23:30 UTC NOAA

GCLA 242330Z AUTO 21003KT 9999 BKN028 24/19 Q1018


Station Type Date Time Source
GCLA Decoded METAR 2019/06/24 23:30 UTC NOAA

La Palma / Aeropuerto, Spain (GCLA) 28-37N 017-45W 31M
Jun 24, 2019 - 07:30 PM EDT / 2019.06.24 2330 UTC
Wind: from the SSW (210 degrees) at 3 MPH (3 KT):0
Visibility: greater than 7 mile(s):0
Sky conditions: mostly cloudy
Temperature: 75 F (24 C)
Dew Point: 66 F (19 C)
Relative Humidity: 73%
Pressure (altimeter): 30.06 in. Hg (1018 hPa)
ob: GCLA 242330Z AUTO 21003KT 9999 BKN028 24/19 Q1018
cycle: 23

Station Type Date Time Source
GCLA TAF 2019/06/24 21:29 UTC NOAA

TAF GCLA 242000Z 2421/2521 29005KT 9999 BKN020 TX26/2514Z TN21/2506Z PROB30
TEMPO 2503/2509 DZ
BECMG 2509/2511 04010KT

Example: see airport list